Norbank — PGIS — position and weather

sailwx.info

Track history (hours):
 
Tides and Currents Weather Stations Pressure Air Temp Water Temp Dewpoint Dewpoint Depression Visibility Wind Speed Wind Dir Waves Ship Positions

Norbank

Operator: P & O Ferries

Last reported at 2019-Sep-21 11:04 UTC. Time now 2019-Sep-21 11:42 UTC.
Position N 53°33' W 003°49'.

Length 167 m; draft 5.5 m.

Type: Ship (hazmat cat A). MMSI: 246213000.

Date/timePositionNaut miles runAvg speedWind from/ knotsBaromVisibWave heightAir tempDewpointWater temp
2019-Sep-21 11:04N 53°33' W 003°49'118.4
2019-Sep-21 11:01N 53°33' W 003°47'918.7
2019-Sep-21 10:31N 53°33' W 003°32'918.9
2019-Sep-21 10:01N 53°31' W 003°16'714.5
2019-Sep-21 09:31N 53°29' W 003°05'3 5.6
2019-Sep-21 09:00N 53°27' W 003°01'0 0.6
2019-Sep-21 08:30N 53°27' W 003°01'0 0.5
2019-Sep-21 08:00N 53°27' W 003°01'0 0.0
2019-Sep-21 07:30N 53°27' W 003°01'0 0.0
2019-Sep-21 07:00N 53°27' W 003°01'0 0.0
2019-Sep-21 06:30N 53°27' W 003°01'0 0.0
2019-Sep-21 05:59N 53°27' W 003°01'0 0.0
2019-Sep-21 05:26N 53°27' W 003°01'0 0.0
2019-Sep-21 04:59N 53°27' W 003°01'0 0.0
2019-Sep-21 04:30N 53°27' W 003°01'0 1.0
2019-Sep-21 04:01N 53°27' W 003°01'3 5.5
2019-Sep-21 03:30N 53°29' W 003°05'714.3
2019-Sep-21 03:00N 53°31' W 003°16'917.3
2019-Sep-21 02:31N 53°32' W 003°30'816.7
2019-Sep-21 02:00N 53°32' W 003°45'917.0
2019-Sep-21 01:30N 53°33' W 003°59'917.0
2019-Sep-21 01:00N 53°33' W 004°13'6117.4
2019-Sep-20 21:31N 53°23' W 005°54'016.8
2019-Sep-20 21:30N 53°23' W 005°54'815.9
2019-Sep-20 21:00N 53°20' W 006°07'4 7.8
2019-Sep-20 20:30N 53°21' W 006°13'0 0.1
2019-Sep-20 20:00N 53°21' W 006°13'0 0.0
2019-Sep-20 19:30N 53°21' W 006°13'0 0.0
2019-Sep-20 18:51N 53°21' W 006°13'0 0.0
2019-Sep-20 18:14N 53°21' W 006°13'0 0.0
2019-Sep-20 17:56N 53°21' W 006°13'0 0.0
2019-Sep-20 17:29N 53°21' W 006°13'0 0.0
2019-Sep-20 16:50N 53°21' W 006°13'0 0.0
2019-Sep-20 16:26N 53°21' W 006°13'2 4.2
2019-Sep-20 16:00N 53°21' W 006°10'814.4
2019-Sep-20 15:28N 53°22' W 005°57'816.8
2019-Sep-20 14:58N 53°24' W 005°44'7117.2
2019-Sep-20 10:51N 53°33' W 003°46'618.0
2019-Sep-20 10:30N 53°33' W 003°35'918.4
2019-Sep-20 10:00N 53°32' W 003°20'816.2
2019-Sep-20 09:30N 53°31' W 003°07'510.4
2019-Sep-20 09:00N 53°27' W 003°01'0 0.1
2019-Sep-20 08:30N 53°27' W 003°01'0 0.8
2019-Sep-20 07:58N 53°27' W 003°01'0 0.0
2019-Sep-20 07:30N 53°27' W 003°01'0 0.0
2019-Sep-20 07:00N 53°27' W 003°01'0 0.0
2019-Sep-20 06:30N 53°27' W 003°01'0 0.0
2019-Sep-20 06:00N 53°27' W 003°01'0 0.0
2019-Sep-20 05:29N 53°27' W 003°01'0 0.0
2019-Sep-20 04:59N 53°27' W 003°01'0 0.0
2019-Sep-20 04:30N 53°27' W 003°01'0 0.9
2019-Sep-20 04:00N 53°27' W 003°01'2 3.7
2019-Sep-20 03:30N 53°28' W 003°04'713.4
2019-Sep-20 03:00N 53°31' W 003°14'816.2
2019-Sep-20 02:30N 53°31' W 003°27'816.6
2019-Sep-20 02:00N 53°31' W 003°41'816.6
2019-Sep-20 01:30N 53°32' W 003°55'816.4
2019-Sep-20 01:00N 53°33' W 004°09'816.5
2019-Sep-20 00:30N 53°35' W 004°23'816.5
2019-Sep-20 00:00N 53°35' W 004°36'917.3
2019-Sep-19 23:30N 53°33' W 004°51'3438.6
2019-Sep-19 22:37N 53°03' W 005°17'3220.0
2019-Sep-19 21:02N 53°21' W 005°60'117.5
2019-Sep-19 21:00N 53°21' W 006°01'612.6
2019-Sep-19 20:30N 53°21' W 006°11'1 1.9
2019-Sep-19 19:56N 53°21' W 006°13'0 0.0
2019-Sep-19 19:26N 53°21' W 006°13'0 0.0
2019-Sep-19 18:50N 53°21' W 006°13'0 0.0
2019-Sep-19 18:22N 53°21' W 006°13'0 0.0
2019-Sep-19 18:00N 53°21' W 006°13'0 0.0
2019-Sep-19 17:30N 53°21' W 006°13'0 0.0
2019-Sep-19 17:01N 53°21' W 006°13'0 0.0
2019-Sep-19 16:30N 53°21' W 006°13'1 2.9
2019-Sep-19 16:00N 53°21' W 006°11'714.4
2019-Sep-19 15:30N 53°22' W 005°59'917.4
2019-Sep-19 15:00N 53°24' W 005°45'917.2
2019-Sep-19 14:30N 53°27' W 005°31'2317.4
2019-Sep-19 13:12N 53°32' W 004°54'418.3
2019-Sep-19 13:00N 53°33' W 004°48'917.9
2019-Sep-19 12:30N 53°34' W 004°33'917.4
2019-Sep-19 11:58N 53°34' W 004°17'817.3
2019-Sep-19 11:31N 53°34' W 004°04'1017.5
2019-Sep-19 10:56N 53°33' W 003°47'817.6
2019-Sep-19 10:31N 53°33' W 003°34'917.9
2019-Sep-19 10:00N 53°32' W 003°19'815.4
2019-Sep-19 09:31N 53°31' W 003°06'510.2
2019-Sep-19 09:01N 53°27' W 003°01'0 0.0
2019-Sep-19 08:31N 53°27' W 003°01'0 0.8
2019-Sep-19 07:58N 53°27' W 003°01'0 0.0
2019-Sep-19 07:30N 53°27' W 003°01'0 0.0
2019-Sep-19 07:00N 53°27' W 003°01'0 0.0
2019-Sep-19 06:30N 53°27' W 003°01'0 0.0
2019-Sep-19 06:00N 53°27' W 003°01'0 0.0
2019-Sep-19 05:30N 53°27' W 003°01'0 0.0
2019-Sep-19 04:59N 53°27' W 003°01'0 0.0
2019-Sep-19 04:30N 53°27' W 003°01'0 1.0
2019-Sep-19 04:01N 53°27' W 003°01'1 1.6
2019-Sep-19 03:30N 53°27' W 003°02'714.4
2019-Sep-19 03:01N 53°31' W 003°13'816.7
2019-Sep-19 02:30N 53°31' W 003°27'816.0
2019-Sep-19 02:00N 53°31' W 003°40'815.8
2019-Sep-19 01:30N 53°32' W 003°53'815.7
2019-Sep-19 01:00N 53°33' W 004°06'816.3
2019-Sep-19 00:30N 53°35' W 004°20'816.0
2019-Sep-19 00:00N 53°35' W 004°33'917.3
2019-Sep-18 23:27N 53°33' W 004°49'4217.5
2019-Sep-18 21:05N 53°22' W 005°56'217.9
2019-Sep-18 20:57N 53°21' W 005°60'613.9
2019-Sep-18 20:30N 53°21' W 006°10'2 2.5
2019-Sep-18 19:46N 53°21' W 006°13'0 0.0
2019-Sep-18 19:04N 53°21' W 006°13'0 0.1
2019-Sep-18 18:58N 53°21' W 006°13'0 0.0
2019-Sep-18 18:25N 53°21' W 006°13'0 0.0
2019-Sep-18 17:48N 53°21' W 006°13'0 0.0
2019-Sep-18 17:15N 53°21' W 006°13'0 0.0
2019-Sep-18 16:40N 53°21' W 006°13'0 0.2
2019-Sep-18 16:30N 53°21' W 006°13'3 5.2
2019-Sep-18 16:00N 53°21' W 006°09'917.5
2019-Sep-18 15:30N 53°23' W 005°55'1019.3
2019-Sep-18 15:00N 53°25' W 005°38'1019.2
2019-Sep-18 14:28N 53°27' W 005°22'4618.8
2019-Sep-18 12:02N 53°34' W 004°06'218.0
2019-Sep-18 11:55N 53°33' W 004°02'817.8
2019-Sep-18 11:27N 53°33' W 003°48'817.5
2019-Sep-18 11:00N 53°33' W 003°35'917.5
2019-Sep-18 10:30N 53°32' W 003°20'815.7
2019-Sep-18 10:00N 53°31' W 003°07'611.8
2019-Sep-18 09:30N 53°27' W 003°01'0 0.3
2019-Sep-18 09:00N 53°27' W 003°01'0 0.9
2019-Sep-18 08:29N 53°27' W 003°01'0 0.0
2019-Sep-18 07:59N 53°27' W 003°01'0 0.0
2019-Sep-18 07:26N 53°27' W 003°01'0 0.0
2019-Sep-18 06:58N 53°27' W 003°01'0 0.0
2019-Sep-18 06:28N 53°27' W 003°01'0 0.0
2019-Sep-18 05:58N 53°27' W 003°01'0 0.0
2019-Sep-18 05:28N 53°27' W 003°01'0 0.0
2019-Sep-18 05:01N 53°27' W 003°01'0 0.0
2019-Sep-18 04:30N 53°27' W 003°01'0 0.9
2019-Sep-18 04:00N 53°27' W 003°01'2 3.5
2019-Sep-18 03:30N 53°28' W 003°03'713.1
2019-Sep-18 03:00N 53°31' W 003°13'917.9
2019-Sep-18 02:30N 53°32' W 003°28'918.4
2019-Sep-18 02:01N 53°32' W 003°44'918.7
2019-Sep-18 01:31N 53°33' W 003°59'816.9
2019-Sep-18 01:00N 53°34' W 004°13'1317.6
2019-Sep-18 00:17N 53°35' W 004°35'518.4
2019-Sep-17 23:59N 53°34' W 004°44'4417.8
2019-Sep-17 21:32N 53°23' W 005°54'117.9
2019-Sep-17 21:29N 53°22' W 005°56'816.0
2019-Sep-17 21:00N 53°21' W 006°08'3 3.7
2019-Sep-17 20:13N 53°21' W 006°13'0 0.0
2019-Sep-17 19:58N 53°21' W 006°13'0 0.0
2019-Sep-17 19:28N 53°21' W 006°13'0 0.0
2019-Sep-17 18:51N 53°21' W 006°13'0 0.0
2019-Sep-17 18:09N 53°21' W 006°13'0 0.0
2019-Sep-17 18:00N 53°21' W 006°13'0 0.0
2019-Sep-17 17:30N 53°21' W 006°13'0 0.0
2019-Sep-17 16:51N 53°21' W 006°13'0 0.3
2019-Sep-17 16:30N 53°21' W 006°13'3 5.3
2019-Sep-17 16:00N 53°21' W 006°08'714.2
2019-Sep-17 15:31N 53°23' W 005°57'816.0
2019-Sep-17 15:00N 53°24' W 005°44'7218.4
2019-Sep-17 11:06N 53°33' W 003°44'217.2
2019-Sep-17 11:00N 53°33' W 003°42'917.5
2019-Sep-17 10:31N 53°33' W 003°27'917.2
2019-Sep-17 10:01N 53°31' W 003°13'714.0
2019-Sep-17 09:31N 53°28' W 003°03'1 2.2
2019-Sep-17 09:00N 53°27' W 003°01'0 0.9
2019-Sep-17 08:30N 53°27' W 003°01'0 0.0
2019-Sep-17 08:00N 53°27' W 003°01'0 0.0
2019-Sep-17 07:29N 53°27' W 003°01'0 0.0
2019-Sep-17 06:59N 53°27' W 003°01'0 0.0
2019-Sep-17 06:26N 53°27' W 003°01'0 0.0
2019-Sep-17 05:59N 53°27' W 003°01'0 0.0
2019-Sep-17 05:28N 53°27' W 003°01'0 0.0
2019-Sep-17 04:58N 53°27' W 003°01'0 0.0
2019-Sep-17 04:30N 53°27' W 003°01'0 0.9
2019-Sep-17 04:00N 53°27' W 003°01'2 3.5
2019-Sep-17 03:30N 53°28' W 003°04'713.3
2019-Sep-17 03:01N 53°31' W 003°13'714.5
2019-Sep-17 02:30N 53°31' W 003°26'613.0
2019-Sep-17 02:00N 53°31' W 003°36'713.3
2019-Sep-17 01:30N 53°32' W 003°48'714.2
2019-Sep-17 01:01N 53°32' W 003°60'1015.3
2019-Sep-17 00:23N 53°34' W 004°15'6016.3
2019-Sep-16 20:40N 53°22' W 005°55'317.7
2019-Sep-16 20:29N 53°21' W 006°00'613.5
2019-Sep-16 20:00N 53°21' W 006°11'1 2.3
2019-Sep-16 19:23N 53°21' W 006°13'0 0.0
2019-Sep-16 18:59N 53°21' W 006°13'0 0.0
2019-Sep-16 18:20N 53°21' W 006°13'0 0.0
2019-Sep-16 17:38N 53°21' W 006°13'0 0.0
2019-Sep-16 17:29N 53°21' W 006°13'0 0.0
2019-Sep-16 16:55N 53°21' W 006°13'0 0.3
2019-Sep-16 16:25N 53°21' W 006°13'0 0.0
2019-Sep-16 15:49N 53°21' W 006°13'0 0.0
2019-Sep-16 15:13N 53°21' W 006°13'0 0.0
2019-Sep-16 14:39N 53°21' W 006°13'0 0.0
2019-Sep-16 14:12N 53°21' W 006°13'0 0.0
2019-Sep-16 14:00N 53°21' W 006°13'0 0.0
2019-Sep-16 13:30N 53°21' W 006°13'0 0.0
2019-Sep-16 13:00N 53°21' W 006°13'0 0.0
2019-Sep-16 12:30N 53°21' W 006°13'0 0.0
2019-Sep-16 11:56N 53°21' W 006°13'0 0.0
2019-Sep-16 11:23N 53°21' W 006°13'0 0.0
2019-Sep-16 10:38N 53°21' W 006°13'0 0.0
2019-Sep-16 10:29N 53°21' W 006°13'0 0.0
2019-Sep-16 09:58N 53°21' W 006°13'0 0.0
2019-Sep-16 09:28N 53°21' W 006°13'0 0.0
2019-Sep-16 08:55N 53°21' W 006°13'0 0.0
2019-Sep-16 08:16N 53°21' W 006°13'0 0.0
2019-Sep-16 07:36N 53°21' W 006°13'0 0.0
2019-Sep-16 07:30N 53°21' W 006°13'0 0.3
2019-Sep-16 07:00N 53°21' W 006°13'0 0.0
2019-Sep-16 06:27N 53°21' W 006°13'0 0.0
2019-Sep-16 05:54N 53°21' W 006°13'0 0.0
2019-Sep-16 05:23N 53°21' W 006°13'0 0.0
2019-Sep-16 04:52N 53°21' W 006°13'0 0.0
2019-Sep-16 04:24N 53°21' W 006°13'0 1.2
2019-Sep-16 04:00N 53°21' W 006°12'510.6
2019-Sep-16 03:30N 53°20' W 006°03'1019.6
2019-Sep-16 03:00N 53°24' W 005°48'7419.4
2019-Sep-15 23:13N 53°33' W 003°45'418.0
2019-Sep-15 23:00N 53°33' W 003°39'917.9
2019-Sep-15 22:31N 53°33' W 003°24'816.9
2019-Sep-15 22:01N 53°32' W 003°10'510.2
2019-Sep-15 21:30N 53°28' W 003°04'2 4.0
2019-Sep-15 21:00N 53°27' W 003°01'0 0.8
2019-Sep-15 20:30N 53°27' W 003°01'0 0.2
2019-Sep-15 19:58N 53°27' W 003°01'0 0.0
2019-Sep-15 19:28N 53°27' W 003°01'0 0.0
2019-Sep-15 18:58N 53°27' W 003°01'0 0.0
2019-Sep-15 18:28N 53°27' W 003°01'0 0.0
2019-Sep-15 17:58N 53°27' W 003°01'0 0.0
2019-Sep-15 17:30N 53°27' W 003°01'0 0.0
2019-Sep-15 17:00N 53°27' W 003°01'0 0.0
2019-Sep-15 16:30N 53°27' W 003°01'0 0.0
2019-Sep-15 16:00N 53°27' W 003°01'0 0.0
2019-Sep-15 15:30N 53°27' W 003°01'0 0.0
2019-Sep-15 14:59N 53°27' W 003°01'0 0.0
2019-Sep-15 14:29N 53°27' W 003°01'0 0.0
2019-Sep-15 13:59N 53°27' W 003°01'0 0.0
2019-Sep-15 13:29N 53°27' W 003°01'0 0.0
2019-Sep-15 12:58N 53°27' W 003°01'0 0.0
2019-Sep-15 12:28N 53°27' W 003°01'0 0.0
2019-Sep-15 11:58N 53°27' W 003°01'0 0.0
2019-Sep-15 11:28N 53°27' W 003°01'0 0.0
2019-Sep-15 10:58N 53°27' W 003°01'0 0.0
2019-Sep-15 10:30N 53°27' W 003°01'0 0.0
2019-Sep-15 10:00N 53°27' W 003°01'0 0.0
2019-Sep-15 09:30N 53°27' W 003°01'0 0.0
2019-Sep-15 08:57N 53°27' W 003°01'0 0.0
2019-Sep-15 08:30N 53°27' W 003°01'0 0.0
2019-Sep-15 07:59N 53°27' W 003°01'0 0.0
2019-Sep-15 07:29N 53°27' W 003°01'0 0.0
2019-Sep-15 06:59N 53°27' W 003°01'0 0.0
2019-Sep-15 06:29N 53°27' W 003°01'0 0.0
2019-Sep-15 05:58N 53°27' W 003°01'0 0.0
2019-Sep-15 05:28N 53°27' W 003°01'0 0.0
2019-Sep-15 05:00N 53°27' W 003°01'0 0.9
2019-Sep-15 04:31N 53°27' W 003°01'1 2.6
2019-Sep-15 04:01N 53°28' W 003°03'713.0
2019-Sep-15 03:30N 53°31' W 003°12'815.2
2019-Sep-15 03:00N 53°31' W 003°25'815.3
2019-Sep-15 02:30N 53°31' W 003°38'714.9
2019-Sep-15 02:00N 53°31' W 003°50'815.0
2019-Sep-15 01:30N 53°32' W 004°03'715.0
2019-Sep-15 01:00N 53°34' W 004°15'814.9
2019-Sep-15 00:30N 53°36' W 004°27'714.5
2019-Sep-15 00:00N 53°36' W 004°39'815.2
2019-Sep-14 23:30N 53°34' W 004°51'4017.1
2019-Sep-14 21:10N 53°22' W 005°56'318.0
2019-Sep-14 21:00N 53°21' W 006°00'713.0
2019-Sep-14 20:30N 53°21' W 006°11'1 2.0
2019-Sep-14 20:00N 53°21' W 006°13'0 0.0
2019-Sep-14 19:30N 53°21' W 006°13'0 0.0
2019-Sep-14 19:00N 53°21' W 006°13'0 0.0
2019-Sep-14 18:30N 53°21' W 006°13'0 0.0
2019-Sep-14 18:00N 53°21' W 006°13'0 0.0
2019-Sep-14 17:30N 53°21' W 006°13'0 0.0
2019-Sep-14 17:00N 53°21' W 006°13'0 0.0
2019-Sep-14 16:30N 53°21' W 006°13'2 4.3
2019-Sep-14 16:00N 53°21' W 006°09'714.1
2019-Sep-14 15:30N 53°22' W 005°58'917.5
2019-Sep-14 15:00N 53°24' W 005°44'3019.3
2019-Sep-14 13:28N 53°32' W 004°56'3819.7
2019-Sep-14 11:33N 53°34' W 003°52'119.0
2019-Sep-14 11:30N 53°34' W 003°51'918.7
2019-Sep-14 11:00N 53°34' W 003°35'918.4
2019-Sep-14 10:30N 53°32' W 003°20'816.8
2019-Sep-14 10:00N 53°31' W 003°06'5 9.1
2019-Sep-14 09:30N 53°27' W 003°01'0 0.9
2019-Sep-14 09:00N 53°27' W 003°01'0 0.1
2019-Sep-14 08:29N 53°27' W 003°01'0 0.0
2019-Sep-14 07:58N 53°27' W 003°01'0 0.0
2019-Sep-14 07:28N 53°27' W 003°01'0 0.0
2019-Sep-14 06:58N 53°27' W 003°01'0 0.0
2019-Sep-14 06:28N 53°27' W 003°01'0 0.0
2019-Sep-14 06:00N 53°27' W 003°01'0 0.0
2019-Sep-14 05:31N 53°27' W 003°01'0 0.9
2019-Sep-14 05:01N 53°27' W 003°01'0 0.1
2019-Sep-14 04:30N 53°27' W 003°01'3 6.9
2019-Sep-14 04:00N 53°29' W 003°05'611.3
2019-Sep-14 03:30N 53°31' W 003°14'714.4
2019-Sep-14 03:01N 53°31' W 003°26'713.8
2019-Sep-14 02:30N 53°30' W 003°38'713.3
2019-Sep-14 02:00N 53°31' W 003°49'714.0
2019-Sep-14 01:30N 53°31' W 004°01'714.2
2019-Sep-14 01:00N 53°32' W 004°13'714.3
2019-Sep-14 00:30N 53°34' W 004°24'714.8
2019-Sep-14 00:00N 53°35' W 004°37'815.8
2019-Sep-13 23:30N 53°34' W 004°50'4117.5
2019-Sep-13 21:09N 53°22' W 005°56'317.7
2019-Sep-13 21:00N 53°21' W 006°00'713.2
2019-Sep-13 20:30N 53°21' W 006°11'1 2.2
2019-Sep-13 20:00N 53°21' W 006°13'0 0.0
2019-Sep-13 19:30N 53°21' W 006°13'0 0.0
2019-Sep-13 19:00N 53°21' W 006°13'0 0.0
2019-Sep-13 18:30N 53°21' W 006°13'0 0.0
2019-Sep-13 18:00N 53°21' W 006°13'0 0.0
2019-Sep-13 17:30N 53°21' W 006°13'0 0.0
2019-Sep-13 17:01N 53°21' W 006°13'0 0.0
2019-Sep-13 16:31N 53°21' W 006°13'2 4.0
2019-Sep-13 16:01N 53°21' W 006°10'713.6
2019-Sep-13 15:30N 53°22' W 005°58'916.3
2019-Sep-13 14:56N 53°24' W 005°44'6018.2
2019-Sep-13 11:39N 53°33' W 004°04'1117.4
2019-Sep-13 11:02N 53°33' W 003°46'016.8
2019-Sep-13 11:00N 53°33' W 003°46'816.8
2019-Sep-13 10:31N 53°33' W 003°31'816.4
2019-Sep-13 10:01N 53°32' W 003°18'714.3
2019-Sep-13 09:30N 53°31' W 003°06'5 9.5
2019-Sep-13 09:01N 53°27' W 003°01'0 0.5
2019-Sep-13 08:31N 53°27' W 003°01'0 0.6
2019-Sep-13 08:00N 53°27' W 003°01'0 0.0
2019-Sep-13 07:30N 53°27' W 003°01'0 0.0
2019-Sep-13 06:59N 53°27' W 003°01'0 0.0
2019-Sep-13 06:29N 53°27' W 003°01'0 0.0
2019-Sep-13 05:59N 53°27' W 003°01'0 0.0
2019-Sep-13 05:29N 53°27' W 003°01'0 0.0
2019-Sep-13 04:59N 53°27' W 003°01'0 0.4
2019-Sep-13 04:28N 53°27' W 003°01'0 0.8
2019-Sep-13 04:01N 53°27' W 003°01'1 1.3
2019-Sep-13 03:31N 53°27' W 003°02'612.3
2019-Sep-13 03:00N 53°32' W 003°09'815.6
2019-Sep-13 02:30N 53°31' W 003°22'1817.6
2019-Sep-13 01:30N 53°32' W 003°52'917.6
2019-Sep-13 01:00N 53°34' W 004°06'6918.2
2019-Sep-12 21:15N 53°21' W 005°60'416.6
2019-Sep-12 21:00N 53°20' W 006°06'4 8.6
2019-Sep-12 20:30N 53°21' W 006°13'0 0.1
2019-Sep-12 19:34N 53°21' W 006°13'0 0.0
2019-Sep-12 19:28N 53°21' W 006°13'0 0.0
2019-Sep-12 18:55N 53°21' W 006°13'0 0.0
2019-Sep-12 18:16N 53°21' W 006°13'0 0.0
2019-Sep-12 17:37N 53°21' W 006°13'0 0.0
2019-Sep-12 17:28N 53°21' W 006°13'0 0.0
2019-Sep-12 16:54N 53°21' W 006°13'0 0.3
2019-Sep-12 16:30N 53°21' W 006°13'2 4.9
2019-Sep-12 16:00N 53°21' W 006°09'611.8
2019-Sep-12 15:29N 53°22' W 005°59'918.3
2019-Sep-12 15:00N 53°24' W 005°44'6519.0
2019-Sep-12 11:34N 53°34' W 003°56'217.9
2019-Sep-12 11:29N 53°33' W 003°54'815.7
2019-Sep-12 11:00N 53°33' W 003°41'816.2
2019-Sep-12 10:30N 53°32' W 003°27'917.2
2019-Sep-12 10:00N 53°31' W 003°13'815.8
2019-Sep-12 09:30N 53°27' W 003°02'0 0.8
2019-Sep-12 09:00N 53°27' W 003°01'0 0.9
2019-Sep-12 08:28N 53°27' W 003°01'0 0.0
2019-Sep-12 07:58N 53°27' W 003°01'0 0.0
2019-Sep-12 07:28N 53°27' W 003°01'0 0.0
2019-Sep-12 06:58N 53°27' W 003°01'0 0.0
2019-Sep-12 06:28N 53°27' W 003°01'0 0.0
2019-Sep-12 06:00N 53°27' W 003°01'0 0.0
2019-Sep-12 05:30N 53°27' W 003°01'0 0.0
2019-Sep-12 05:00N 53°27' W 003°01'0 0.0
2019-Sep-12 04:30N 53°27' W 003°01'0 0.9
2019-Sep-12 03:58N 53°27' W 003°01'0 0.3
2019-Sep-12 03:30N 53°27' W 003°01'611.4
2019-Sep-12 03:01N 53°31' W 003°07'815.2
2019-Sep-12 02:31N 53°31' W 003°20'816.8
2019-Sep-12 02:01N 53°31' W 003°34'816.5
2019-Sep-12 01:31N 53°32' W 003°48'816.6
2019-Sep-12 01:01N 53°33' W 004°02'7117.4
2019-Sep-11 20:54N 53°21' W 005°60'614.4
2019-Sep-11 20:30N 53°21' W 006°10'2 4.3
2019-Sep-11 20:00N 53°21' W 006°13'0 0.0
2019-Sep-11 19:23N 53°21' W 006°13'0 0.0
2019-Sep-11 18:47N 53°21' W 006°13'0 0.0
2019-Sep-11 18:28N 53°21' W 006°13'0 0.0
2019-Sep-11 17:58N 53°21' W 006°13'0 0.0
2019-Sep-11 17:25N 53°21' W 006°13'0 0.0
2019-Sep-11 16:47N 53°21' W 006°13'0 0.0
2019-Sep-11 16:25N 53°21' W 006°13'1 1.5
2019-Sep-11 16:00N 53°21' W 006°12'611.3
2019-Sep-11 15:30N 53°21' W 006°03'815.7
2019-Sep-11 15:00N 53°23' W 005°50'  
Track history (hours):
 
Tides and Currents Weather Stations Pressure Air Temp Water Temp Dewpoint Dewpoint Depression Visibility Wind Speed Wind Dir Waves Ship Positions

Norbank

Operator: P & O Ferries

Last reported at 2019-Sep-21 11:04 UTC. Time now 2019-Sep-21 11:42 UTC.
Position N 53°33' W 003°49'.

Length 167 m; draft 5.5 m.

Type: Ship (hazmat cat A). MMSI: 246213000.

Date/timePositionNaut miles runAvg speedWind from/ knotsBaromVisibWave heightAir tempDewpointWater temp
2019-Sep-21 11:04N 53°33' W 003°49'118.4
2019-Sep-21 11:01N 53°33' W 003°47'918.7
2019-Sep-21 10:31N 53°33' W 003°32'918.9
2019-Sep-21 10:01N 53°31' W 003°16'714.5
2019-Sep-21 09:31N 53°29' W 003°05'3 5.6
2019-Sep-21 09:00N 53°27' W 003°01'0 0.6
2019-Sep-21 08:30N 53°27' W 003°01'0 0.5
2019-Sep-21 08:00N 53°27' W 003°01'0 0.0
2019-Sep-21 07:30N 53°27' W 003°01'0 0.0
2019-Sep-21 07:00N 53°27' W 003°01'0 0.0
2019-Sep-21 06:30N 53°27' W 003°01'0 0.0
2019-Sep-21 05:59N 53°27' W 003°01'0 0.0
2019-Sep-21 05:26N 53°27' W 003°01'0 0.0
2019-Sep-21 04:59N 53°27' W 003°01'0 0.0
2019-Sep-21 04:30N 53°27' W 003°01'0 1.0
2019-Sep-21 04:01N 53°27' W 003°01'3 5.5
2019-Sep-21 03:30N 53°29' W 003°05'714.3
2019-Sep-21 03:00N 53°31' W 003°16'917.3
2019-Sep-21 02:31N 53°32' W 003°30'816.7
2019-Sep-21 02:00N 53°32' W 003°45'917.0
2019-Sep-21 01:30N 53°33' W 003°59'917.0
2019-Sep-21 01:00N 53°33' W 004°13'6117.4
2019-Sep-20 21:31N 53°23' W 005°54'016.8
2019-Sep-20 21:30N 53°23' W 005°54'815.9
2019-Sep-20 21:00N 53°20' W 006°07'4 7.8
2019-Sep-20 20:30N 53°21' W 006°13'0 0.1
2019-Sep-20 20:00N 53°21' W 006°13'0 0.0
2019-Sep-20 19:30N 53°21' W 006°13'0 0.0
2019-Sep-20 18:51N 53°21' W 006°13'0 0.0
2019-Sep-20 18:14N 53°21' W 006°13'0 0.0
2019-Sep-20 17:56N 53°21' W 006°13'0 0.0
2019-Sep-20 17:29N 53°21' W 006°13'0 0.0
2019-Sep-20 16:50N 53°21' W 006°13'0 0.0
2019-Sep-20 16:26N 53°21' W 006°13'2 4.2
2019-Sep-20 16:00N 53°21' W 006°10'814.4
2019-Sep-20 15:28N 53°22' W 005°57'816.8
2019-Sep-20 14:58N 53°24' W 005°44'7117.2
2019-Sep-20 10:51N 53°33' W 003°46'618.0
2019-Sep-20 10:30N 53°33' W 003°35'918.4
2019-Sep-20 10:00N 53°32' W 003°20'816.2
2019-Sep-20 09:30N 53°31' W 003°07'510.4
2019-Sep-20 09:00N 53°27' W 003°01'0 0.1
2019-Sep-20 08:30N 53°27' W 003°01'0 0.8
2019-Sep-20 07:58N 53°27' W 003°01'0 0.0
2019-Sep-20 07:30N 53°27' W 003°01'0 0.0
2019-Sep-20 07:00N 53°27' W 003°01'0 0.0
2019-Sep-20 06:30N 53°27' W 003°01'0 0.0
2019-Sep-20 06:00N 53°27' W 003°01'0 0.0
2019-Sep-20 05:29N 53°27' W 003°01'0 0.0
2019-Sep-20 04:59N 53°27' W 003°01'0 0.0
2019-Sep-20 04:30N 53°27' W 003°01'0 0.9
2019-Sep-20 04:00N 53°27' W 003°01'2 3.7
2019-Sep-20 03:30N 53°28' W 003°04'713.4
2019-Sep-20 03:00N 53°31' W 003°14'816.2
2019-Sep-20 02:30N 53°31' W 003°27'816.6
2019-Sep-20 02:00N 53°31' W 003°41'816.6
2019-Sep-20 01:30N 53°32' W 003°55'816.4
2019-Sep-20 01:00N 53°33' W 004°09'816.5
2019-Sep-20 00:30N 53°35' W 004°23'816.5
2019-Sep-20 00:00N 53°35' W 004°36'917.3
2019-Sep-19 23:30N 53°33' W 004°51'3438.6
2019-Sep-19 22:37N 53°03' W 005°17'3220.0
2019-Sep-19 21:02N 53°21' W 005°60'117.5
2019-Sep-19 21:00N 53°21' W 006°01'612.6
2019-Sep-19 20:30N 53°21' W 006°11'1 1.9
2019-Sep-19 19:56N 53°21' W 006°13'0 0.0
2019-Sep-19 19:26N 53°21' W 006°13'0 0.0
2019-Sep-19 18:50N 53°21' W 006°13'0 0.0
2019-Sep-19 18:22N 53°21' W 006°13'0 0.0
2019-Sep-19 18:00N 53°21' W 006°13'0 0.0
2019-Sep-19 17:30N 53°21' W 006°13'0 0.0
2019-Sep-19 17:01N 53°21' W 006°13'0 0.0
2019-Sep-19 16:30N 53°21' W 006°13'1 2.9
2019-Sep-19 16:00N 53°21' W 006°11'714.4
2019-Sep-19 15:30N 53°22' W 005°59'917.4
2019-Sep-19 15:00N 53°24' W 005°45'917.2
2019-Sep-19 14:30N 53°27' W 005°31'2317.4
2019-Sep-19 13:12N 53°32' W 004°54'418.3
2019-Sep-19 13:00N 53°33' W 004°48'917.9
2019-Sep-19 12:30N 53°34' W 004°33'917.4
2019-Sep-19 11:58N 53°34' W 004°17'817.3
2019-Sep-19 11:31N 53°34' W 004°04'1017.5
2019-Sep-19 10:56N 53°33' W 003°47'817.6
2019-Sep-19 10:31N 53°33' W 003°34'917.9
2019-Sep-19 10:00N 53°32' W 003°19'815.4
2019-Sep-19 09:31N 53°31' W 003°06'510.2
2019-Sep-19 09:01N 53°27' W 003°01'0 0.0
2019-Sep-19 08:31N 53°27' W 003°01'0 0.8
2019-Sep-19 07:58N 53°27' W 003°01'0 0.0
2019-Sep-19 07:30N 53°27' W 003°01'0 0.0
2019-Sep-19 07:00N 53°27' W 003°01'0 0.0
2019-Sep-19 06:30N 53°27' W 003°01'0 0.0
2019-Sep-19 06:00N 53°27' W 003°01'0 0.0
2019-Sep-19 05:30N 53°27' W 003°01'0 0.0
2019-Sep-19 04:59N 53°27' W 003°01'0 0.0
2019-Sep-19 04:30N 53°27' W 003°01'0 1.0
2019-Sep-19 04:01N 53°27' W 003°01'1 1.6
2019-Sep-19 03:30N 53°27' W 003°02'714.4
2019-Sep-19 03:01N 53°31' W 003°13'816.7
2019-Sep-19 02:30N 53°31' W 003°27'816.0
2019-Sep-19 02:00N 53°31' W 003°40'815.8
2019-Sep-19 01:30N 53°32' W 003°53'815.7
2019-Sep-19 01:00N 53°33' W 004°06'816.3
2019-Sep-19 00:30N 53°35' W 004°20'816.0
2019-Sep-19 00:00N 53°35' W 004°33'917.3
2019-Sep-18 23:27N 53°33' W 004°49'4217.5
2019-Sep-18 21:05N 53°22' W 005°56'217.9
2019-Sep-18 20:57N 53°21' W 005°60'613.9
2019-Sep-18 20:30N 53°21' W 006°10'2 2.5
2019-Sep-18 19:46N 53°21' W 006°13'0 0.0
2019-Sep-18 19:04N 53°21' W 006°13'0 0.1
2019-Sep-18 18:58N 53°21' W 006°13'0 0.0
2019-Sep-18 18:25N 53°21' W 006°13'0 0.0
2019-Sep-18 17:48N 53°21' W 006°13'0 0.0
2019-Sep-18 17:15N 53°21' W 006°13'0 0.0
2019-Sep-18 16:40N 53°21' W 006°13'0 0.2
2019-Sep-18 16:30N 53°21' W 006°13'3 5.2
2019-Sep-18 16:00N 53°21' W 006°09'917.5
2019-Sep-18 15:30N 53°23' W 005°55'1019.3
2019-Sep-18 15:00N 53°25' W 005°38'1019.2
2019-Sep-18 14:28N 53°27' W 005°22'4618.8
2019-Sep-18 12:02N 53°34' W 004°06'218.0
2019-Sep-18 11:55N 53°33' W 004°02'817.8
2019-Sep-18 11:27N 53°33' W 003°48'817.5
2019-Sep-18 11:00N 53°33' W 003°35'917.5
2019-Sep-18 10:30N 53°32' W 003°20'815.7
2019-Sep-18 10:00N 53°31' W 003°07'611.8
2019-Sep-18 09:30N 53°27' W 003°01'0 0.3
2019-Sep-18 09:00N 53°27' W 003°01'0 0.9
2019-Sep-18 08:29N 53°27' W 003°01'0 0.0
2019-Sep-18 07:59N 53°27' W 003°01'0 0.0
2019-Sep-18 07:26N 53°27' W 003°01'0 0.0
2019-Sep-18 06:58N 53°27' W 003°01'0 0.0
2019-Sep-18 06:28N 53°27' W 003°01'0 0.0
2019-Sep-18 05:58N 53°27' W 003°01'0 0.0
2019-Sep-18 05:28N 53°27' W 003°01'0 0.0
2019-Sep-18 05:01N 53°27' W 003°01'0 0.0
2019-Sep-18 04:30N 53°27' W 003°01'0 0.9
2019-Sep-18 04:00N 53°27' W 003°01'2 3.5
2019-Sep-18 03:30N 53°28' W 003°03'713.1
2019-Sep-18 03:00N 53°31' W 003°13'917.9
2019-Sep-18 02:30N 53°32' W 003°28'918.4
2019-Sep-18 02:01N 53°32' W 003°44'918.7
2019-Sep-18 01:31N 53°33' W 003°59'816.9
2019-Sep-18 01:00N 53°34' W 004°13'1317.6
2019-Sep-18 00:17N 53°35' W 004°35'518.4
2019-Sep-17 23:59N 53°34' W 004°44'4417.8
2019-Sep-17 21:32N 53°23' W 005°54'117.9
2019-Sep-17 21:29N 53°22' W 005°56'816.0
2019-Sep-17 21:00N 53°21' W 006°08'3 3.7
2019-Sep-17 20:13N 53°21' W 006°13'0 0.0
2019-Sep-17 19:58N 53°21' W 006°13'0 0.0
2019-Sep-17 19:28N 53°21' W 006°13'0 0.0
2019-Sep-17 18:51N 53°21' W 006°13'0 0.0
2019-Sep-17 18:09N 53°21' W 006°13'0 0.0
2019-Sep-17 18:00N 53°21' W 006°13'0 0.0
2019-Sep-17 17:30N 53°21' W 006°13'0 0.0
2019-Sep-17 16:51N 53°21' W 006°13'0 0.3
2019-Sep-17 16:30N 53°21' W 006°13'3 5.3
2019-Sep-17 16:00N 53°21' W 006°08'714.2
2019-Sep-17 15:31N 53°23' W 005°57'816.0
2019-Sep-17 15:00N 53°24' W 005°44'7218.4
2019-Sep-17 11:06N 53°33' W 003°44'217.2
2019-Sep-17 11:00N 53°33' W 003°42'917.5
2019-Sep-17 10:31N 53°33' W 003°27'917.2
2019-Sep-17 10:01N 53°31' W 003°13'714.0
2019-Sep-17 09:31N 53°28' W 003°03'1 2.2
2019-Sep-17 09:00N 53°27' W 003°01'0 0.9
2019-Sep-17 08:30N 53°27' W 003°01'0 0.0
2019-Sep-17 08:00N 53°27' W 003°01'0 0.0
2019-Sep-17 07:29N 53°27' W 003°01'0 0.0
2019-Sep-17 06:59N 53°27' W 003°01'0 0.0
2019-Sep-17 06:26N 53°27' W 003°01'0 0.0
2019-Sep-17 05:59N 53°27' W 003°01'0 0.0
2019-Sep-17 05:28N 53°27' W 003°01'0 0.0
2019-Sep-17 04:58N 53°27' W 003°01'0 0.0
2019-Sep-17 04:30N 53°27' W 003°01'0 0.9
2019-Sep-17 04:00N 53°27' W 003°01'2 3.5
2019-Sep-17 03:30N 53°28' W 003°04'713.3
2019-Sep-17 03:01N 53°31' W 003°13'714.5
2019-Sep-17 02:30N 53°31' W 003°26'613.0
2019-Sep-17 02:00N 53°31' W 003°36'713.3
2019-Sep-17 01:30N 53°32' W 003°48'714.2
2019-Sep-17 01:01N 53°32' W 003°60'1015.3
2019-Sep-17 00:23N 53°34' W 004°15'6016.3
2019-Sep-16 20:40N 53°22' W 005°55'317.7
2019-Sep-16 20:29N 53°21' W 006°00'613.5
2019-Sep-16 20:00N 53°21' W 006°11'1 2.3
2019-Sep-16 19:23N 53°21' W 006°13'0 0.0
2019-Sep-16 18:59N 53°21' W 006°13'0 0.0
2019-Sep-16 18:20N 53°21' W 006°13'0 0.0
2019-Sep-16 17:38N 53°21' W 006°13'0 0.0
2019-Sep-16 17:29N 53°21' W 006°13'0 0.0
2019-Sep-16 16:55N 53°21' W 006°13'0 0.3
2019-Sep-16 16:25N 53°21' W 006°13'0 0.0
2019-Sep-16 15:49N 53°21' W 006°13'0 0.0
2019-Sep-16 15:13N 53°21' W 006°13'0 0.0
2019-Sep-16 14:39N 53°21' W 006°13'0 0.0
2019-Sep-16 14:12N 53°21' W 006°13'0 0.0
2019-Sep-16 14:00N 53°21' W 006°13'0 0.0
2019-Sep-16 13:30N 53°21' W 006°13'0 0.0
2019-Sep-16 13:00N 53°21' W 006°13'0 0.0
2019-Sep-16 12:30N 53°21' W 006°13'0 0.0
2019-Sep-16 11:56N 53°21' W 006°13'0 0.0
2019-Sep-16 11:23N 53°21' W 006°13'0 0.0
2019-Sep-16 10:38N 53°21' W 006°13'0 0.0
2019-Sep-16 10:29N 53°21' W 006°13'0 0.0
2019-Sep-16 09:58N 53°21' W 006°13'0 0.0
2019-Sep-16 09:28N 53°21' W 006°13'0 0.0
2019-Sep-16 08:55N 53°21' W 006°13'0 0.0
2019-Sep-16 08:16N 53°21' W 006°13'0 0.0
2019-Sep-16 07:36N 53°21' W 006°13'0 0.0
2019-Sep-16 07:30N 53°21' W 006°13'0 0.3
2019-Sep-16 07:00N 53°21' W 006°13'0 0.0
2019-Sep-16 06:27N 53°21' W 006°13'0 0.0
2019-Sep-16 05:54N 53°21' W 006°13'0 0.0
2019-Sep-16 05:23N 53°21' W 006°13'0 0.0
2019-Sep-16 04:52N 53°21' W 006°13'0 0.0
2019-Sep-16 04:24N 53°21' W 006°13'0 1.2
2019-Sep-16 04:00N 53°21' W 006°12'510.6
2019-Sep-16 03:30N 53°20' W 006°03'1019.6
2019-Sep-16 03:00N 53°24' W 005°48'7419.4
2019-Sep-15 23:13N 53°33' W 003°45'418.0
2019-Sep-15 23:00N 53°33' W 003°39'917.9
2019-Sep-15 22:31N 53°33' W 003°24'816.9
2019-Sep-15 22:01N 53°32' W 003°10'510.2
2019-Sep-15 21:30N 53°28' W 003°04'2 4.0
2019-Sep-15 21:00N 53°27' W 003°01'0 0.8
2019-Sep-15 20:30N 53°27' W 003°01'0 0.2
2019-Sep-15 19:58N 53°27' W 003°01'0 0.0
2019-Sep-15 19:28N 53°27' W 003°01'0 0.0
2019-Sep-15 18:58N 53°27' W 003°01'0 0.0
2019-Sep-15 18:28N 53°27' W 003°01'0 0.0
2019-Sep-15 17:58N 53°27' W 003°01'0 0.0
2019-Sep-15 17:30N 53°27' W 003°01'0 0.0
2019-Sep-15 17:00N 53°27' W 003°01'0 0.0
2019-Sep-15 16:30N 53°27' W 003°01'0 0.0
2019-Sep-15 16:00N 53°27' W 003°01'0 0.0
2019-Sep-15 15:30N 53°27' W 003°01'0 0.0
2019-Sep-15 14:59N 53°27' W 003°01'0 0.0
2019-Sep-15 14:29N 53°27' W 003°01'0 0.0
2019-Sep-15 13:59N 53°27' W 003°01'0 0.0
2019-Sep-15 13:29N 53°27' W 003°01'0 0.0
2019-Sep-15 12:58N 53°27' W 003°01'0 0.0
2019-Sep-15 12:28N 53°27' W 003°01'0 0.0
2019-Sep-15 11:58N 53°27' W 003°01'0 0.0
2019-Sep-15 11:28N 53°27' W 003°01'0 0.0
2019-Sep-15 10:58N 53°27' W 003°01'0 0.0
2019-Sep-15 10:30N 53°27' W 003°01'0 0.0
2019-Sep-15 10:00N 53°27' W 003°01'0 0.0
2019-Sep-15 09:30N 53°27' W 003°01'0 0.0
2019-Sep-15 08:57N 53°27' W 003°01'0 0.0
2019-Sep-15 08:30N 53°27' W 003°01'0 0.0
2019-Sep-15 07:59N 53°27' W 003°01'0 0.0
2019-Sep-15 07:29N 53°27' W 003°01'0 0.0
2019-Sep-15 06:59N 53°27' W 003°01'0 0.0
2019-Sep-15 06:29N 53°27' W 003°01'0 0.0
2019-Sep-15 05:58N 53°27' W 003°01'0 0.0
2019-Sep-15 05:28N 53°27' W 003°01'0 0.0
2019-Sep-15 05:00N 53°27' W 003°01'0 0.9
2019-Sep-15 04:31N 53°27' W 003°01'1 2.6
2019-Sep-15 04:01N 53°28' W 003°03'713.0
2019-Sep-15 03:30N 53°31' W 003°12'815.2
2019-Sep-15 03:00N 53°31' W 003°25'815.3
2019-Sep-15 02:30N 53°31' W 003°38'714.9
2019-Sep-15 02:00N 53°31' W 003°50'815.0
2019-Sep-15 01:30N 53°32' W 004°03'715.0
2019-Sep-15 01:00N 53°34' W 004°15'814.9
2019-Sep-15 00:30N 53°36' W 004°27'714.5
2019-Sep-15 00:00N 53°36' W 004°39'815.2
2019-Sep-14 23:30N 53°34' W 004°51'4017.1
2019-Sep-14 21:10N 53°22' W 005°56'318.0
2019-Sep-14 21:00N 53°21' W 006°00'713.0
2019-Sep-14 20:30N 53°21' W 006°11'1 2.0
2019-Sep-14 20:00N 53°21' W 006°13'0 0.0
2019-Sep-14 19:30N 53°21' W 006°13'0 0.0
2019-Sep-14 19:00N 53°21' W 006°13'0 0.0
2019-Sep-14 18:30N 53°21' W 006°13'0 0.0
2019-Sep-14 18:00N 53°21' W 006°13'0 0.0
2019-Sep-14 17:30N 53°21' W 006°13'0 0.0
2019-Sep-14 17:00N 53°21' W 006°13'0 0.0
2019-Sep-14 16:30N 53°21' W 006°13'2 4.3
2019-Sep-14 16:00N 53°21' W 006°09'714.1
2019-Sep-14 15:30N 53°22' W 005°58'917.5
2019-Sep-14 15:00N 53°24' W 005°44'3019.3
2019-Sep-14 13:28N 53°32' W 004°56'3819.7
2019-Sep-14 11:33N 53°34' W 003°52'119.0
2019-Sep-14 11:30N 53°34' W 003°51'918.7
2019-Sep-14 11:00N 53°34' W 003°35'918.4
2019-Sep-14 10:30N 53°32' W 003°20'816.8
2019-Sep-14 10:00N 53°31' W 003°06'5 9.1
2019-Sep-14 09:30N 53°27' W 003°01'0 0.9
2019-Sep-14 09:00N 53°27' W 003°01'0 0.1
2019-Sep-14 08:29N 53°27' W 003°01'0 0.0
2019-Sep-14 07:58N 53°27' W 003°01'0 0.0
2019-Sep-14 07:28N 53°27' W 003°01'0 0.0
2019-Sep-14 06:58N 53°27' W 003°01'0 0.0
2019-Sep-14 06:28N 53°27' W 003°01'0 0.0
2019-Sep-14 06:00N 53°27' W 003°01'0 0.0
2019-Sep-14 05:31N 53°27' W 003°01'0 0.9
2019-Sep-14 05:01N 53°27' W 003°01'0 0.1
2019-Sep-14 04:30N 53°27' W 003°01'3 6.9
2019-Sep-14 04:00N 53°29' W 003°05'611.3
2019-Sep-14 03:30N 53°31' W 003°14'714.4
2019-Sep-14 03:01N 53°31' W 003°26'713.8
2019-Sep-14 02:30N 53°30' W 003°38'713.3
2019-Sep-14 02:00N 53°31' W 003°49'714.0
2019-Sep-14 01:30N 53°31' W 004°01'714.2
2019-Sep-14 01:00N 53°32' W 004°13'714.3
2019-Sep-14 00:30N 53°34' W 004°24'714.8
2019-Sep-14 00:00N 53°35' W 004°37'815.8
2019-Sep-13 23:30N 53°34' W 004°50'4117.5
2019-Sep-13 21:09N 53°22' W 005°56'317.7
2019-Sep-13 21:00N 53°21' W 006°00'713.2
2019-Sep-13 20:30N 53°21' W 006°11'1 2.2
2019-Sep-13 20:00N 53°21' W 006°13'0 0.0
2019-Sep-13 19:30N 53°21' W 006°13'0 0.0
2019-Sep-13 19:00N 53°21' W 006°13'0 0.0
2019-Sep-13 18:30N 53°21' W 006°13'0 0.0
2019-Sep-13 18:00N 53°21' W 006°13'0 0.0
2019-Sep-13 17:30N 53°21' W 006°13'0 0.0
2019-Sep-13 17:01N 53°21' W 006°13'0 0.0
2019-Sep-13 16:31N 53°21' W 006°13'2 4.0
2019-Sep-13 16:01N 53°21' W 006°10'713.6
2019-Sep-13 15:30N 53°22' W 005°58'916.3
2019-Sep-13 14:56N 53°24' W 005°44'6018.2
2019-Sep-13 11:39N 53°33' W 004°04'1117.4
2019-Sep-13 11:02N 53°33' W 003°46'016.8
2019-Sep-13 11:00N 53°33' W 003°46'816.8
2019-Sep-13 10:31N 53°33' W 003°31'816.4
2019-Sep-13 10:01N 53°32' W 003°18'714.3
2019-Sep-13 09:30N 53°31' W 003°06'5 9.5
2019-Sep-13 09:01N 53°27' W 003°01'0 0.5
2019-Sep-13 08:31N 53°27' W 003°01'0 0.6
2019-Sep-13 08:00N 53°27' W 003°01'0 0.0
2019-Sep-13 07:30N 53°27' W 003°01'0 0.0
2019-Sep-13 06:59N 53°27' W 003°01'0 0.0
2019-Sep-13 06:29N 53°27' W 003°01'0 0.0
2019-Sep-13 05:59N 53°27' W 003°01'0 0.0
2019-Sep-13 05:29N 53°27' W 003°01'0 0.0
2019-Sep-13 04:59N 53°27' W 003°01'0 0.4
2019-Sep-13 04:28N 53°27' W 003°01'0 0.8
2019-Sep-13 04:01N 53°27' W 003°01'1 1.3
2019-Sep-13 03:31N 53°27' W 003°02'612.3
2019-Sep-13 03:00N 53°32' W 003°09'815.6
2019-Sep-13 02:30N 53°31' W 003°22'1817.6
2019-Sep-13 01:30N 53°32' W 003°52'917.6
2019-Sep-13 01:00N 53°34' W 004°06'6918.2
2019-Sep-12 21:15N 53°21' W 005°60'416.6
2019-Sep-12 21:00N 53°20' W 006°06'4 8.6
2019-Sep-12 20:30N 53°21' W 006°13'0 0.1
2019-Sep-12 19:34N 53°21' W 006°13'0 0.0
2019-Sep-12 19:28N 53°21' W 006°13'0 0.0
2019-Sep-12 18:55N 53°21' W 006°13'0 0.0
2019-Sep-12 18:16N 53°21' W 006°13'0 0.0
2019-Sep-12 17:37N 53°21' W 006°13'0 0.0
2019-Sep-12 17:28N 53°21' W 006°13'0 0.0
2019-Sep-12 16:54N 53°21' W 006°13'0 0.3
2019-Sep-12 16:30N 53°21' W 006°13'2 4.9
2019-Sep-12 16:00N 53°21' W 006°09'611.8
2019-Sep-12 15:29N 53°22' W 005°59'918.3
2019-Sep-12 15:00N 53°24' W 005°44'6519.0
2019-Sep-12 11:34N 53°34' W 003°56'217.9
2019-Sep-12 11:29N 53°33' W 003°54'815.7
2019-Sep-12 11:00N 53°33' W 003°41'816.2
2019-Sep-12 10:30N 53°32' W 003°27'917.2
2019-Sep-12 10:00N 53°31' W 003°13'815.8
2019-Sep-12 09:30N 53°27' W 003°02'0 0.8
2019-Sep-12 09:00N 53°27' W 003°01'0 0.9
2019-Sep-12 08:28N 53°27' W 003°01'0 0.0
2019-Sep-12 07:58N 53°27' W 003°01'0 0.0
2019-Sep-12 07:28N 53°27' W 003°01'0 0.0
2019-Sep-12 06:58N 53°27' W 003°01'0 0.0
2019-Sep-12 06:28N 53°27' W 003°01'0 0.0
2019-Sep-12 06:00N 53°27' W 003°01'0 0.0
2019-Sep-12 05:30N 53°27' W 003°01'0 0.0
2019-Sep-12 05:00N 53°27' W 003°01'0 0.0
2019-Sep-12 04:30N 53°27' W 003°01'0 0.9
2019-Sep-12 03:58N 53°27' W 003°01'0 0.3
2019-Sep-12 03:30N 53°27' W 003°01'611.4
2019-Sep-12 03:01N 53°31' W 003°07'815.2
2019-Sep-12 02:31N 53°31' W 003°20'816.8
2019-Sep-12 02:01N 53°31' W 003°34'816.5
2019-Sep-12 01:31N 53°32' W 003°48'816.6
2019-Sep-12 01:01N 53°33' W 004°02'7117.4
2019-Sep-11 20:54N 53°21' W 005°60'614.4
2019-Sep-11 20:30N 53°21' W 006°10'2 4.3
2019-Sep-11 20:00N 53°21' W 006°13'0 0.0
2019-Sep-11 19:23N 53°21' W 006°13'0 0.0
2019-Sep-11 18:47N 53°21' W 006°13'0 0.0
2019-Sep-11 18:28N 53°21' W 006°13'0 0.0
2019-Sep-11 17:58N 53°21' W 006°13'0 0.0
2019-Sep-11 17:25N 53°21' W 006°13'0 0.0
2019-Sep-11 16:47N 53°21' W 006°13'0 0.0
2019-Sep-11 16:25N 53°21' W 006°13'1 1.5
2019-Sep-11 16:00N 53°21' W 006°12'611.3
2019-Sep-11 15:30N 53°21' W 006°03'815.7
2019-Sep-11 15:00N 53°23' W 005°50'  

Dump ship's entire track history